Time;durP1;ratioP1;P1;durP2;ratioP2;P2;SDS_P1;SDS_P2;PMS_P1;PMS_P2;Temp;Humidity;BMP_temperature;BMP_pressure;BME280_temperature;BME280_humidity;BME280_pressure;Samples;Min_cycle;Max_cycle;Signal;HPM_P1;HPM_P2
2022/08/27 00:01:59;;;;;;;18.45;10.20;;;;;;;19.76;57.86;99885.42;1798057;79;21042;-68
2022/08/27 00:04:26;;;;;;;17.60;9.05;;;;;;;19.74;57.89;99878.01;1800086;79;21517;-68
2022/08/27 00:06:52;;;;;;;19.25;9.88;;;;;;;19.73;57.97;99881.63;1800327;79;21590;-69
2022/08/27 00:09:19;;;;;;;21.80;9.70;;;;;;;19.70;58.06;99878.72;1800286;79;21844;-68
2022/08/27 00:11:45;;;;;;;18.23;10.13;;;;;;;19.70;58.05;99875.20;1800250;79;21986;-68
2022/08/27 00:14:12;;;;;;;20.27;10.35;;;;;;;19.67;58.03;99870.93;1800128;79;21030;-68
2022/08/27 00:16:40;;;;;;;19.23;9.70;;;;;;;19.67;57.98;99874.09;1800221;79;21178;-67
2022/08/27 00:19:08;;;;;;;20.25;10.20;;;;;;;19.64;58.08;99875.16;1729414;83;21046;-67
2022/08/27 00:21:35;;;;;;;18.62;9.25;;;;;;;19.63;57.98;99873.97;1800346;79;20978;-68
2022/08/27 00:24:02;;;;;;;18.07;9.18;;;;;;;19.61;58.00;99879.91;1800367;79;21034;-67
2022/08/27 00:26:29;;;;;;;21.87;9.55;;;;;;;19.61;57.99;99885.25;1800287;79;21217;-67
2022/08/27 00:28:55;;;;;;;18.40;9.80;;;;;;;19.61;57.38;99879.41;1800296;79;21043;-69
2022/08/27 00:31:21;;;;;;;18.40;9.55;;;;;;;19.63;57.11;99873.47;1800380;79;21093;-68
2022/08/27 00:33:48;;;;;;;19.75;9.75;;;;;;;19.66;57.16;99879.05;1800015;79;21085;-68
2022/08/27 00:36:14;;;;;;;18.80;9.90;;;;;;;19.67;56.97;99875.43;1800191;79;21499;-66
2022/08/27 00:38:41;;;;;;;15.83;9.40;;;;;;;19.67;57.19;99875.43;1799706;79;21135;-67
2022/08/27 00:41:10;;;;;;;19.70;9.98;;;;;;;19.67;57.52;99876.77;1799575;79;21030;-67
2022/08/27 00:43:47;;;;;;;14.58;9.25;;;;;;;19.64;57.69;99877.83;1799747;79;21037;-67
2022/08/27 00:46:31;;;;;;;19.37;10.23;;;;;;;19.63;57.92;99884.65;1729248;83;21026;-67
2022/08/27 00:49:03;;;;;;;16.95;9.55;;;;;;;19.57;57.92;99877.95;1800326;79;21314;-67
2022/08/27 00:51:30;;;;;;;20.88;10.20;;;;;;;19.53;58.30;99884.50;1729405;83;21082;-68
2022/08/27 00:53:57;;;;;;;19.62;9.70;;;;;;;19.50;58.46;99881.58;1789781;79;21504;-67
2022/08/27 00:56:27;;;;;;;15.05;9.90;;;;;;;19.45;58.85;99886.44;1773931;80;21038;-67
2022/08/27 00:58:55;;;;;;;17.67;9.38;;;;;;;19.42;58.89;99887.18;1773990;80;21547;-66
2022/08/27 01:01:27;;;;;;;17.70;9.18;;;;;;;19.39;59.03;99881.56;1773611;80;21182;-68
2022/08/27 01:03:58;;;;;;;15.18;9.00;;;;;;;19.37;59.07;99880.86;1773619;80;21020;-68
2022/08/27 01:06:27;;;;;;;;;;;;;;;19.34;59.28;99887.75;1776068;80;21106;-66
2022/08/27 01:09:02;;;;;;;23.22;10.08;;;;;;;19.31;59.43;99878.66;1774116;80;20213;-68
2022/08/27 01:11:28;;;;;;;16.37;9.08;;;;;;;19.26;59.61;99881.69;1773833;80;21571;-68
2022/08/27 01:13:55;;;;;;;17.05;9.58;;;;;;;19.25;59.48;99877.78;1773912;80;21115;-67
2022/08/27 01:16:25;;;;;;;23.20;9.83;;;;;;;19.25;59.63;99876.45;1773631;80;21042;-67
2022/08/27 01:18:52;;;;;;;18.70;10.23;;;;;;;19.22;59.72;99876.70;1773885;80;21095;-67
2022/08/27 01:21:27;;;;;;;17.60;10.32;;;;;;;19.20;59.77;99881.30;1773668;80;22050;-66
2022/08/27 01:24:22;;;;;;;18.42;9.68;;;;;;;19.22;59.60;99892.72;1773867;80;21090;-67
2022/08/27 01:26:49;;;;;;;18.73;11.12;;;;;;;19.22;59.62;99884.70;1773779;80;21624;-67
2022/08/27 01:29:16;;;;;;;19.50;9.90;;;;;;;19.20;59.58;99879.48;1773687;80;21040;-68
2022/08/27 01:31:43;;;;;;;18.17;9.48;;;;;;;19.21;59.71;99884.32;1773814;80;21022;-67
2022/08/27 01:34:10;;;;;;;18.62;9.80;;;;;;;19.20;59.90;99885.30;1773782;80;21055;-67
2022/08/27 01:36:36;;;;;;;18.87;9.98;;;;;;;19.20;59.92;99887.97;1773778;80;21043;-67
2022/08/27 01:39:03;;;;;;;16.52;10.23;;;;;;;19.19;60.19;99888.95;1773807;80;21133;-67
2022/08/27 01:41:30;;;;;;;20.23;10.08;;;;;;;19.16;59.68;99885.17;1773544;80;21012;-67
2022/08/27 01:43:56;;;;;;;21.23;10.55;;;;;;;19.19;59.47;99886.29;1773859;80;21094;-68
2022/08/27 01:46:25;;;;;;;17.42;9.98;;;;;;;19.21;59.32;99885.66;1773699;80;21072;-68
2022/08/27 01:48:53;;;;;;;20.15;10.58;;;;;;;19.22;59.25;99892.22;1774020;80;21032;-67
2022/08/27 01:51:20;;;;;;;22.20;10.48;;;;;;;19.24;59.20;99894.30;1773870;80;22125;-68
2022/08/27 01:53:48;;;;;;;18.32;10.85;;;;;;;19.26;59.11;99891.52;1782649;79;21010;-68
2022/08/27 01:56:15;;;;;;;17.67;10.55;;;;;;;19.27;59.47;99890.53;1800406;79;21019;-67
2022/08/27 01:58:43;;;;;;;20.92;10.55;;;;;;;19.25;59.58;99887.97;1800252;79;21077;-68
2022/08/27 02:01:11;;;;;;;20.72;10.85;;;;;;;19.24;59.58;99883.62;1709058;83;21083;-68
2022/08/27 02:03:38;;;;;;;18.98;10.65;;;;;;;19.25;59.44;99883.12;1703243;84;21606;-68
2022/08/27 02:06:08;;;;;;;20.75;10.95;;;;;;;19.24;59.53;99882.77;1690892;84;21105;-67
2022/08/27 02:08:34;;;;;;;19.60;10.63;;;;;;;19.23;59.71;99875.72;1720281;83;21008;-68
2022/08/27 02:11:01;;;;;;;22.48;10.82;;;;;;;19.25;59.84;99880.45;1719834;83;21067;-68
2022/08/27 02:13:27;;;;;;;21.85;10.45;;;;;;;19.26;59.69;99880.84;1719887;83;21587;-67
2022/08/27 02:15:54;;;;;;;18.35;11.03;;;;;;;19.25;59.55;99879.13;1720132;83;21114;-67
2022/08/27 02:18:20;;;;;;;23.38;10.98;;;;;;;19.24;59.56;99880.11;1720162;83;21257;-68
2022/08/27 02:20:47;;;;;;;16.25;9.95;;;;;;;19.25;59.49;99875.12;1719967;83;21070;-68
2022/08/27 02:23:14;;;;;;;17.17;10.30;;;;;;;19.26;59.38;99880.84;1720021;83;21114;-67
2022/08/27 02:25:41;;;;;;;20.32;10.70;;;;;;;19.27;59.27;99872.69;1720078;83;21622;-67
2022/08/27 02:28:08;;;;;;;15.98;9.35;;;;;;;19.27;59.25;99877.19;1720084;83;21296;-67
2022/08/27 02:30:35;;;;;;;18.27;9.80;;;;;;;19.27;58.78;99872.69;1719887;83;21024;-67
2022/08/27 02:33:03;;;;;;;18.45;10.03;;;;;;;19.31;58.32;99877.81;1719977;83;21063;-69
2022/08/27 02:35:33;;;;;;;15.03;9.43;;;;;;;19.34;58.13;99879.75;1719714;83;21594;-67
2022/08/27 02:38:01;;;;;;;18.42;9.58;;;;;;;19.39;57.75;99878.05;1720064;83;21070;-66
2022/08/27 02:40:28;;;;;;;17.27;10.53;;;;;;;19.41;58.02;99873.45;1719790;83;21153;-67
2022/08/27 02:42:55;;;;;;;21.87;10.38;;;;;;;19.43;58.16;99872.35;1719965;83;21024;-68
2022/08/27 02:45:22;;;;;;;19.32;10.00;;;;;;;19.41;58.04;99870.78;1719838;83;21055;-66
2022/08/27 02:47:48;;;;;;;16.93;9.63;;;;;;;19.40;58.23;99872.60;1719829;83;21129;-67
2022/08/27 02:50:15;;;;;;;19.20;9.90;;;;;;;19.40;58.23;99871.27;1720219;83;21011;-69
2022/08/27 02:52:44;;;;;;;18.17;9.53;;;;;;;19.39;58.31;99870.88;1719758;83;21792;-67
2022/08/27 02:55:11;;;;;;;18.42;9.70;;;;;;;19.38;58.31;99874.54;1746839;82;20996;-66
2022/08/27 02:57:41;;;;;;;14.53;10.00;;;;;;;19.38;58.47;99875.88;1749886;82;21127;-67
2022/08/27 03:00:10;;;;;;;19.48;9.35;;;;;;;19.37;58.60;99872.85;1750149;82;21058;-67
2022/08/27 03:02:37;;;;;;;18.30;9.93;;;;;;;19.36;58.48;99875.14;1729535;82;21046;-68
2022/08/27 03:05:06;;;;;;;19.45;10.30;;;;;;;19.35;58.63;99873.45;1706933;84;21672;-68
2022/08/27 03:07:32;;;;;;;17.10;9.95;;;;;;;19.33;58.93;99867.38;1706959;84;21564;-67
2022/08/27 03:09:59;;;;;;;19.05;11.00;;;;;;;19.31;59.19;99867.98;1706960;84;21787;-67
2022/08/27 03:12:27;;;;;;;20.70;11.40;;;;;;;19.28;59.33;99861.55;1706790;84;21033;-67
2022/08/27 03:14:54;;;;;;;21.87;10.55;;;;;;;19.27;59.50;99863.84;1706876;84;21104;-66
2022/08/27 03:20:11;;;;;;;17.45;10.35;;;;;;;19.30;59.50;99866.27;1706947;84;21037;-67
2022/08/27 03:22:39;;;;;;;20.17;11.37;;;;;;;19.31;59.67;99865.80;1707397;84;21060;-66
2022/08/27 03:25:08;;;;;;;21.12;11.40;;;;;;;19.31;59.88;99859.97;1706750;84;21521;-68
2022/08/27 03:27:34;;;;;;;17.57;11.50;;;;;;;19.31;59.86;99862.64;1707334;84;21054;-70
2022/08/27 03:30:09;;;;;;;23.90;11.57;;;;;;;19.30;60.15;99862.25;1706934;84;21710;-67
2022/08/27 03:32:38;;;;;;;20.25;11.28;;;;;;;19.30;60.24;99863.59;1706949;84;21050;-66
2022/08/27 03:35:05;;;;;;;23.47;11.50;;;;;;;19.29;60.33;99858.74;1706857;84;21045;-67
2022/08/27 03:37:32;;;;;;;19.73;11.12;;;;;;;19.27;60.57;99862.02;1707041;84;21560;-67
2022/08/27 03:39:58;;;;;;;22.30;11.83;;;;;;;19.28;60.58;99857.55;1706834;84;21546;-68
2022/08/27 03:42:24;;;;;;;18.98;11.60;;;;;;;19.28;60.70;99853.55;1707202;84;21150;-69
2022/08/27 03:44:51;;;;;;;20.35;11.90;;;;;;;19.27;60.70;99859.34;1706829;84;22147;-67
2022/08/27 03:47:17;;;;;;;25.20;12.15;;;;;;;19.29;60.84;99859.23;1707054;83;21564;-67
2022/08/27 03:49:44;;;;;;;26.05;12.13;;;;;;;19.28;61.04;99862.89;1706774;84;21573;-68
2022/08/27 03:52:10;;;;;;;20.15;11.95;;;;;;;19.26;61.28;99858.15;1707137;84;21525;-67
2022/08/27 03:54:37;;;;;;;19.52;10.70;;;;;;;19.27;61.41;99854.50;1706770;84;21759;-67
2022/08/27 03:57:04;;;;;;;19.23;10.38;;;;;;;19.28;61.41;99849.54;1694106;84;21065;-67
2022/08/27 03:59:30;;;;;;;19.40;10.15;;;;;;;19.29;61.45;99856.08;1694290;84;21616;-70
2022/08/27 04:01:57;;;;;;;23.00;12.03;;;;;;;19.30;61.57;99850.24;1696812;81;21105;-67
2022/08/27 04:04:24;;;;;;;22.65;11.00;;;;;;;19.33;61.75;99853.19;1773263;80;21096;-66
2022/08/27 04:06:51;;;;;;;16.27;10.50;;;;;;;19.34;61.79;99845.53;1773287;80;21141;-68
2022/08/27 04:09:18;;;;;;;18.48;10.28;;;;;;;19.36;61.88;99847.59;1773192;80;21046;-67
2022/08/27 04:11:46;;;;;;;19.82;11.08;;;;;;;19.38;62.04;99851.00;1773243;80;21521;-66
2022/08/27 04:14:12;;;;;;;19.70;10.28;;;;;;;19.40;62.13;99845.91;1773443;80;21570;-68
2022/08/27 04:16:40;;;;;;;20.40;10.48;;;;;;;19.45;62.12;99852.22;1772853;80;21550;-66
2022/08/27 04:19:06;;;;;;;18.87;11.03;;;;;;;19.47;62.07;99844.45;1773154;80;21136;-67
2022/08/27 04:21:34;;;;;;;31.45;11.00;;;;;;;19.52;61.91;99845.91;1772934;80;21045;-68
2022/08/27 04:24:01;;;;;;;21.50;10.72;;;;;;;19.54;61.84;99846.64;1773307;80;21014;-67
2022/08/27 04:26:28;;;;;;;18.15;10.05;;;;;;;19.58;61.75;99837.39;1773175;80;21030;-68
2022/08/27 04:28:57;;;;;;;18.25;9.90;;;;;;;19.60;61.80;99840.33;1773291;80;21120;-67
2022/08/27 04:31:24;;;;;;;19.30;9.95;;;;;;;19.64;61.63;99838.25;1773285;80;21209;-68
2022/08/27 04:33:52;;;;;;;20.20;10.43;;;;;;;19.66;61.57;99841.66;1773258;80;21089;-68
2022/08/27 04:36:18;;;;;;;19.15;10.13;;;;;;;19.69;61.11;99840.09;1773290;80;21085;-68
2022/08/27 04:38:45;;;;;;;22.58;10.43;;;;;;;19.73;61.25;99837.55;1773354;80;21042;-66
2022/08/27 04:41:18;;;;;;;18.87;10.20;;;;;;;19.77;61.22;99828.33;1773496;80;21160;-67
2022/08/27 04:43:48;;;;;;;23.38;10.38;;;;;;;19.80;61.13;99841.42;1773258;80;21250;-69
2022/08/27 04:46:26;;;;;;;17.85;9.85;;;;;;;19.81;60.94;99833.80;1772883;80;21526;-69
2022/08/27 04:48:52;;;;;;;25.88;9.78;;;;;;;19.82;60.73;99827.46;1773161;80;21076;-68
2022/08/27 04:51:19;;;;;;;25.92;10.00;;;;;;;19.84;60.69;99833.53;1773476;80;21026;-68
2022/08/27 04:53:46;;;;;;;24.47;10.58;;;;;;;19.88;60.78;99838.16;1780014;80;21042;-68
2022/08/27 04:56:15;;;;;;;17.23;9.33;;;;;;;19.89;60.46;99825.98;1780357;80;22097;-70
2022/08/27 04:58:42;;;;;;;21.40;10.50;;;;;;;19.93;60.92;99820.42;1773567;80;21105;-69
2022/08/27 05:01:09;;;;;;;24.12;10.38;;;;;;;19.96;61.03;99822.83;1773142;80;21006;-70
2022/08/27 05:03:35;;;;;;;22.52;10.30;;;;;;;19.99;61.01;99827.92;1750208;80;21033;-70
2022/08/27 05:06:04;;;;;;;15.70;9.58;;;;;;;20.03;61.18;99832.05;1773423;80;21093;-68
2022/08/27 05:08:30;;;;;;;17.45;9.33;;;;;;;20.07;61.11;99844.20;1773135;80;21627;-68
2022/08/27 05:10:57;;;;;;;17.85;9.33;;;;;;;20.10;61.05;99847.95;1773300;80;21090;-68
2022/08/27 05:13:24;;;;;;;18.52;9.15;;;;;;;20.13;60.96;99843.70;1773136;80;21026;-68
2022/08/27 05:16:00;;;;;;;20.72;9.45;;;;;;;20.17;61.06;99845.13;1773316;80;21053;-67
2022/08/27 05:18:26;;;;;;;18.35;8.88;;;;;;;20.20;60.69;99842.23;1773213;80;21054;-68
2022/08/27 05:20:53;;;;;;;20.65;9.73;;;;;;;20.23;60.71;99841.97;1773375;80;21159;-68
2022/08/27 05:23:20;;;;;;;18.90;9.23;;;;;;;20.24;60.48;99840.98;1773272;80;21038;-68
2022/08/27 05:25:48;;;;;;;21.25;9.50;;;;;;;20.24;60.51;99835.63;1773282;80;21092;-68
2022/08/27 05:28:16;;;;;;;21.17;9.08;;;;;;;20.26;60.44;99833.69;1773720;80;21113;-68
2022/08/27 05:30:45;;;;;;;31.57;9.60;;;;;;;20.27;60.55;99843.42;1773325;80;21038;-69
2022/08/27 05:33:13;;;;;;;19.00;10.78;;;;;;;20.27;60.45;99835.41;1773577;80;21683;-69
2022/08/27 05:35:43;;;;;;;17.85;10.40;;;;;;;20.27;60.74;99834.56;1773218;80;21518;-68
2022/08/27 05:38:09;;;;;;;23.60;11.40;;;;;;;20.26;61.00;99838.19;1773025;80;21151;-68
2022/08/27 05:40:37;;;;;;;29.15;11.90;;;;;;;20.25;61.13;99841.36;1773411;80;21065;-68
2022/08/27 05:43:04;;;;;;;25.88;11.68;;;;;;;20.25;61.37;99837.84;1773720;80;21081;-68
2022/08/27 05:45:31;;;;;;;23.62;10.70;;;;;;;20.25;61.52;99834.67;1773203;80;21121;-68
2022/08/27 05:47:57;;;;;;;29.67;11.75;;;;;;;20.26;61.50;99831.02;1773192;80;20999;-69
2022/08/27 05:50:25;;;;;;;18.27;10.08;;;;;;;20.30;61.73;99833.80;1773579;80;21558;-68
2022/08/27 05:52:52;;;;;;;25.15;9.43;;;;;;;20.31;61.80;99831.51;1773447;80;21027;-69
2022/08/27 05:55:19;;;;;;;17.48;8.83;;;;;;;20.32;61.86;99830.52;1759098;80;21046;-67
2022/08/27 05:57:45;;;;;;;27.20;9.03;;;;;;;20.36;61.84;99830.25;1680781;85;21656;-68
2022/08/27 06:02:47;;;;;;;16.80;8.63;;;;;;;20.39;61.73;99828.69;1716606;81;21058;-69
2022/08/27 06:05:13;;;;;;;20.48;8.33;;;;;;;20.42;61.64;99828.42;1685984;84;21062;-69
2022/08/27 06:07:40;;;;;;;16.57;7.95;;;;;;;20.43;61.48;99822.95;1763465;81;21014;-68
2022/08/27 06:10:08;;;;;;;21.52;8.83;;;;;;;20.46;61.37;99821.34;1763508;81;21302;-70
2022/08/27 06:12:35;;;;;;;17.75;8.68;;;;;;;20.49;61.38;99821.58;1763779;81;21585;-68
2022/08/27 06:15:02;;;;;;;21.15;8.83;;;;;;;20.52;61.39;99828.00;1763481;81;21096;-69
2022/08/27 06:17:29;;;;;;;20.90;8.10;;;;;;;20.53;61.37;99823.03;1763142;81;21034;-70
2022/08/27 06:19:56;;;;;;;15.83;7.85;;;;;;;20.55;61.25;99817.06;1685916;85;21034;-69
2022/08/27 06:22:24;;;;;;;16.77;8.30;;;;;;;20.59;61.19;99827.03;1763412;81;21142;-69
2022/08/27 06:24:50;;;;;;;19.32;8.00;;;;;;;20.61;60.87;99827.27;1685858;84;21062;-68
2022/08/27 06:27:18;;;;;;;14.80;7.42;;;;;;;20.66;60.80;99830.43;1763792;81;21023;-69
2022/08/27 06:29:45;;;;;;;23.87;8.48;;;;;;;20.69;60.56;99822.13;1763533;81;21077;-69
2022/08/27 06:32:12;;;;;;;18.00;7.58;;;;;;;20.72;60.62;99824.54;1763778;81;21594;-69
2022/08/27 06:34:39;;;;;;;24.87;8.30;;;;;;;20.74;60.61;99824.42;1763538;81;21779;-67
2022/08/27 06:37:07;;;;;;;19.02;8.65;;;;;;;20.78;60.64;99831.72;1685124;84;21069;-67
2022/08/27 06:39:35;;;;;;;22.65;8.45;;;;;;;20.79;60.33;99826.70;1763277;81;21038;-68
2022/08/27 06:42:02;;;;;;;20.32;7.70;;;;;;;20.83;60.53;99828.16;1763551;81;21545;-68
2022/08/27 06:44:31;;;;;;;17.57;7.90;;;;;;;20.85;60.66;99827.54;1763152;81;21011;-68
2022/08/27 06:46:58;;;;;;;19.70;7.72;;;;;;;20.85;60.67;99818.17;1763399;81;21195;-68
2022/08/27 06:49:26;;;;;;;19.87;8.05;;;;;;;20.86;60.38;99819.85;1685833;85;21087;-69
2022/08/27 06:51:52;;;;;;;15.35;7.12;;;;;;;20.90;59.29;99815.45;1763443;81;21022;-68
2022/08/27 06:54:19;;;;;;;17.70;7.22;;;;;;;20.99;59.25;99812.48;1712418;82;21058;-68
2022/08/27 06:56:45;;;;;;;16.48;6.65;;;;;;;21.07;58.87;99807.33;1734483;82;21097;-67
2022/08/27 06:59:14;;;;;;;17.77;8.15;;;;;;;21.16;59.18;99817.72;1734971;82;21226;-68
2022/08/27 07:01:45;;;;;;;23.50;7.58;;;;;;;21.24;59.12;99810.37;1734394;82;21515;-68
2022/08/27 07:04:15;;;;;;;17.83;6.90;;;;;;;21.32;58.36;99807.86;1731821;82;21105;-68
2022/08/27 07:06:41;;;;;;;10.23;5.37;;;;;;;21.45;57.21;99810.37;1728673;82;21037;-67
2022/08/27 07:09:08;;;;;;;12.03;6.65;;;;;;;21.58;56.97;99810.99;1728938;82;21101;-68
2022/08/27 07:11:35;;;;;;;11.80;5.50;;;;;;;21.72;56.82;99815.13;1728745;83;22603;-67
2022/08/27 07:14:02;;;;;;;10.10;6.35;;;;;;;21.82;56.17;99813.31;1729039;83;21534;-70
2022/08/27 07:16:29;;;;;;;19.45;5.92;;;;;;;21.94;56.43;99808.69;1728845;83;21031;-69
2022/08/27 07:18:57;;;;;;;15.05;6.65;;;;;;;22.05;55.80;99799.69;1729060;83;21012;-69
2022/08/27 07:21:25;;;;;;;21.17;6.25;;;;;;;22.16;55.72;99802.25;1729263;83;21094;-68
2022/08/27 07:23:53;;;;;;;20.55;6.45;;;;;;;22.28;55.39;99802.49;1728698;83;21151;-69
2022/08/27 07:26:21;;;;;;;24.15;6.47;;;;;;;22.39;54.69;99806.39;1729039;83;21109;-68
2022/08/27 07:28:47;;;;;;;25.17;5.92;;;;;;;22.52;54.19;99806.59;1728849;83;22192;-69
2022/08/27 07:31:16;;;;;;;16.30;5.72;;;;;;;22.65;53.50;99810.34;1728872;83;21061;-68
2022/08/27 07:33:43;;;;;;;17.40;6.62;;;;;;;22.79;52.99;99817.45;1728947;83;21419;-68
2022/08/27 07:36:10;;;;;;;24.12;6.87;;;;;;;22.92;52.76;99820.35;1728911;83;21670;-71
2022/08/27 07:38:38;;;;;;;17.67;6.53;;;;;;;23.05;52.19;99819.56;1714917;83;21507;-68
2022/08/27 07:41:08;;;;;;;17.50;6.65;;;;;;;23.16;52.09;99818.55;1735978;82;21099;-68
2022/08/27 07:46:22;;;;;;;46.20;8.95;;;;;;;23.33;51.74;99807.53;1773082;80;21096;-68
2022/08/27 07:48:49;;;;;;;22.73;7.55;;;;;;;23.40;52.22;99815.39;1773199;80;21212;-68
2022/08/27 07:51:19;;;;;;;22.85;8.08;;;;;;;23.50;52.23;99806.78;1773067;80;21021;-69
2022/08/27 07:53:46;;;;;;;26.37;7.83;;;;;;;23.62;51.50;99810.12;1773620;80;21034;-68
2022/08/27 07:56:12;;;;;;;20.57;7.78;;;;;;;23.68;51.53;99800.12;1773335;80;21029;-67
2022/08/27 07:58:39;;;;;;;26.23;8.90;;;;;;;23.73;51.86;99799.17;1773597;80;21017;-69
2022/08/27 08:01:06;;;;;;;29.05;9.95;;;;;;;23.80;52.11;99802.14;1773168;80;21707;-71
2022/08/27 08:03:33;;;;;;;19.70;8.00;;;;;;;23.83;52.24;99799.14;1773957;80;21188;-68
2022/08/27 08:06:06;;;;;;;21.55;7.67;;;;;;;23.86;52.21;99796.17;1779082;80;21319;-69
2022/08/27 08:08:34;;;;;;;16.32;7.78;;;;;;;23.86;52.25;99805.08;1778911;80;21056;-69
2022/08/27 08:11:02;;;;;;;19.35;6.70;;;;;;;23.90;52.22;99801.58;1779165;80;21077;-69
2022/08/27 08:13:30;;;;;;;19.67;7.10;;;;;;;23.95;51.92;99800.66;1778956;80;21622;-69
2022/08/27 08:15:57;;;;;;;20.82;6.92;;;;;;;24.02;51.82;99798.20;1778988;80;21041;-69
2022/08/27 08:18:24;;;;;;;21.52;6.65;;;;;;;24.12;51.71;99798.13;1778979;80;21096;-68
2022/08/27 08:20:51;;;;;;;16.90;7.10;;;;;;;24.27;51.19;99794.77;1779276;80;21304;-67
2022/08/27 08:23:19;;;;;;;19.87;6.45;;;;;;;24.46;51.04;99793.76;1779032;80;21106;-69
2022/08/27 08:25:46;;;;;;;17.17;6.62;;;;;;;24.73;50.52;99794.67;1778953;80;21678;-70
2022/08/27 08:28:12;;;;;;;21.15;5.90;;;;;;;25.10;50.41;99789.58;1779250;80;21577;-69
2022/08/27 08:30:42;;;;;;;13.83;5.12;;;;;;;25.50;48.52;99790.83;1779007;80;21073;-71
2022/08/27 08:33:09;;;;;;;12.45;5.03;;;;;;;25.89;47.29;99786.29;1779470;80;21002;-70
2022/08/27 08:35:38;;;;;;;19.67;5.65;;;;;;;26.22;45.14;99785.01;1779067;80;21049;-69
2022/08/27 08:38:05;;;;;;;11.53;5.30;;;;;;;26.44;45.08;99784.36;1779242;80;21198;-69
2022/08/27 08:40:39;;;;;;;16.20;5.33;;;;;;;26.67;44.01;99779.17;1778840;80;21302;-70
2022/08/27 08:43:09;;;;;;;14.73;5.00;;;;;;;26.89;41.65;99774.91;1778998;80;21089;-69
2022/08/27 08:45:36;;;;;;;12.35;4.92;;;;;;;27.06;42.11;99776.27;1779094;80;21058;-68
2022/08/27 08:48:11;;;;;;;12.98;5.00;;;;;;;27.24;40.75;99776.05;1778849;80;21064;-69
2022/08/27 08:51:18;;;;;;;16.80;5.67;;;;;;;27.54;41.16;99763.64;1778634;80;21162;-69
2022/08/27 08:53:58;;;;;;;12.47;5.40;;;;;;;27.98;40.07;99764.46;1783798;79;21419;-70
2022/08/27 08:56:37;;;;;;;14.13;5.15;;;;;;;28.50;38.74;99767.82;1722383;83;21346;-69
2022/08/27 08:59:13;;;;;;;12.25;5.30;;;;;;;28.85;37.27;99770.92;1795138;79;21047;-69
2022/08/27 09:01:39;;;;;;;12.68;5.20;;;;;;;29.13;36.28;99763.56;1795284;79;21109;-69
2022/08/27 09:04:09;;;;;;;12.73;4.72;;;;;;;29.13;36.28;99763.56;1796075;79;21094;-69
2022/08/27 09:06:50;;;;;;;11.12;4.85;;;;;;;29.52;35.97;99761.05;1717000;83;21033;-69
2022/08/27 09:09:36;;;;;;;17.30;5.05;;;;;;;30.04;35.01;99755.97;1798095;79;21142;-69
2022/08/27 09:12:21;;;;;;;16.30;5.17;;;;;;;30.62;33.63;99767.66;1716926;82;21563;-69
2022/08/27 09:15:09;;;;;;;17.70;5.35;;;;;;;31.13;31.72;99768.79;1797897;79;21054;-69
2022/08/27 09:18:33;;;;;;;21.02;5.80;;;;;;;31.83;29.60;99759.20;1814530;79;23352;-69
2022/08/27 09:21:05;;;;;;;9.23;4.60;;;;;;;31.83;29.60;99759.20;1787667;80;21020;-69
2022/08/27 09:24:05;;;;;;;14.93;4.87;;;;;;;32.06;29.72;99758.05;1787453;80;21644;-70
2022/08/27 09:26:35;;;;;;;19.75;5.50;;;;;;;32.45;29.38;99753.19;1787570;80;21108;-70
2022/08/27 09:29:15;;;;;;;20.10;5.15;;;;;;;32.76;28.89;99747.14;1787290;80;21052;-71
2022/08/27 09:31:53;;;;;;;14.13;5.53;;;;;;;32.98;28.24;99744.17;1787834;80;21060;-69
2022/08/27 09:34:20;;;;;;;20.25;5.08;;;;;;;33.19;27.90;99746.66;1783216;80;21585;-68
2022/08/27 09:37:14;;;;;;;19.40;5.50;;;;;;;33.48;27.83;99743.13;1787403;80;21186;-69
2022/08/27 09:39:48;;;;;;;12.40;4.80;;;;;;;33.81;27.24;99748.99;1787123;80;21061;-69
2022/08/27 09:42:29;;;;;;;18.00;5.83;;;;;;;34.09;26.74;99748.61;1786715;80;21606;-70
2022/08/27 09:44:56;;;;;;;27.37;6.97;;;;;;;34.10;26.06;99746.77;1787594;80;21037;-70
2022/08/27 09:47:22;;;;;;;35.88;6.85;;;;;;;34.15;24.65;99745.05;1787474;80;21044;-69
2022/08/27 09:50:05;;;;;;;29.65;7.45;;;;;;;34.14;24.49;99747.98;1787354;80;21735;-70
2022/08/27 09:52:54;;;;;;;28.85;6.50;;;;;;;34.13;24.17;99751.79;1787185;80;21026;-69
2022/08/27 09:55:44;;;;;;;29.92;6.75;;;;;;;34.06;24.53;99758.09;1757384;80;21035;-68
2022/08/27 09:58:24;;;;;;;38.35;8.10;;;;;;;34.30;24.35;99747.45;1756529;81;21015;-69
2022/08/27 10:01:01;;;;;;;37.88;6.75;;;;;;;34.60;24.21;99757.73;1754848;81;21575;-69
2022/08/27 10:03:28;;;;;;;43.20;8.08;;;;;;;34.64;23.44;99750.80;1756545;81;21226;-68
2022/08/27 10:05:55;;;;;;;33.70;7.87;;;;;;;34.52;23.36;99742.99;1756569;81;21562;-69
2022/08/27 10:08:46;;;;;;;36.48;7.85;;;;;;;34.44;24.50;99736.75;1756477;81;21621;-69
2022/08/27 10:11:20;;;;;;;31.93;8.35;;;;;;;34.54;23.90;99747.71;1755674;81;21575;-69
2022/08/27 10:14:11;;;;;;;31.75;7.58;;;;;;;34.75;24.50;99741.87;1756670;81;21086;-69
2022/08/27 10:16:58;;;;;;;35.55;7.40;;;;;;;35.01;23.89;99738.56;1729836;81;21252;-72
2022/08/27 10:19:58;;;;;;;35.10;6.60;;;;;;;35.13;23.65;99751.82;1713977;83;21016;-68
2022/08/27 10:23:02;;;;;;;37.17;7.20;;;;;;;35.10;23.48;99738.57;1713799;83;21531;-70
2022/08/27 10:25:41;;;;;;;28.15;6.90;;;;;;;35.02;24.10;99740.25;1713578;83;21465;-69
2022/08/27 10:28:19;;;;;;;29.05;6.45;;;;;;;35.01;24.12;99742.66;1713670;82;21690;-70
2022/08/27 10:31:15;;;;;;;39.30;7.90;;;;;;;34.93;24.02;99742.44;1713248;82;21237;-71
2022/08/27 10:34:19;;;;;;;33.67;6.67;;;;;;;34.74;24.99;99749.78;1713305;83;21055;-70
2022/08/27 10:37:28;;;;;;;27.55;7.00;;;;;;;34.77;24.96;99747.95;1712666;83;21098;-69
2022/08/27 10:40:26;;;;;;;30.45;6.65;;;;;;;35.03;24.91;99746.84;1712799;83;21547;-69
2022/08/27 10:43:28;;;;;;;31.85;7.50;;;;;;;35.10;24.90;99745.41;1713104;83;21582;-69
2022/08/27 10:46:19;;;;;;;36.88;8.18;;;;;;;35.04;25.14;99739.47;1713262;83;21093;-69
2022/08/27 10:48:52;;;;;;;25.48;6.67;;;;;;;35.17;25.21;99732.52;1713172;82;21019;-69
2022/08/27 10:51:41;;;;;;;24.60;6.22;;;;;;;35.13;24.35;99738.67;1713276;83;21118;-69
2022/08/27 10:54:48;;;;;;;19.37;5.37;;;;;;;34.98;24.30;99736.29;1726583;82;21065;-70
2022/08/27 10:57:43;;;;;;;27.10;5.70;;;;;;;34.73;22.82;99737.15;1742394;82;21084;-69
2022/08/27 11:00:19;;;;;;;28.65;6.35;;;;;;;34.80;23.76;99737.92;1742683;82;21126;-69
2022/08/27 11:03:10;;;;;;;22.60;5.42;;;;;;;35.06;23.85;99733.23;1742470;82;21050;-68
2022/08/27 11:05:49;;;;;;;18.42;4.42;;;;;;;35.27;22.60;99747.90;1742520;82;21552;-69
2022/08/27 11:08:37;;;;;;;13.95;4.05;;;;;;;35.27;20.75;99741.05;1742811;82;21037;-70
2022/08/27 11:11:16;;;;;;;20.25;4.90;;;;;;;34.79;21.53;99752.67;1742638;82;21061;-69
2022/08/27 11:13:50;;;;;;;12.20;4.85;;;;;;;34.05;22.52;99742.77;1704440;83;21169;-70
2022/08/27 11:16:28;;;;;;;16.65;5.00;;;;;;;33.69;23.50;99738.45;1742465;81;21000;-70
2022/08/27 11:19:18;;;;;;;21.82;5.45;;;;;;;33.61;23.97;99739.52;1742658;82;21701;-71
2022/08/27 11:22:05;;;;;;;21.53;5.07;;;;;;;33.43;24.64;99736.13;1742069;82;21071;-69
2022/08/27 11:24:43;;;;;;;17.52;6.00;;;;;;;33.21;24.22;99736.38;1742965;82;21704;-69
2022/08/27 11:27:10;;;;;;;23.32;4.62;;;;;;;33.02;24.00;99737.25;1742166;82;21224;-70
2022/08/27 11:29:54;;;;;;;17.27;4.65;;;;;;;32.85;23.96;99734.11;1742641;82;21037;-69
2022/08/27 11:32:38;;;;;;;15.60;4.55;;;;;;;32.76;23.70;99732.16;1741818;82;21530;-69
2022/08/27 11:35:19;;;;;;;18.92;4.80;;;;;;;32.67;24.19;99733.92;1742557;82;21089;-70
2022/08/27 11:38:16;;;;;;;13.70;4.90;;;;;;;32.46;24.63;99737.66;1742651;82;21060;-70
2022/08/27 11:41:14;;;;;;;20.25;4.65;;;;;;;32.31;25.10;99740.07;1741856;82;21168;-70
2022/08/27 11:43:41;;;;;;;13.75;4.78;;;;;;;32.27;25.62;99731.98;1742306;82;21006;-69
2022/08/27 11:46:08;;;;;;;20.85;5.10;;;;;;;32.26;25.66;99731.69;1742949;82;21036;-70
2022/08/27 11:48:41;;;;;;;21.17;6.30;;;;;;;32.26;25.89;99729.50;1745955;82;21030;-69
2022/08/27 11:51:16;;;;;;;23.45;7.20;;;;;;;32.20;25.37;99722.98;1742822;82;22110;-69
2022/08/27 11:53:56;;;;;;;22.70;8.20;;;;;;;32.11;25.87;99724.22;1740985;82;21374;-69